Time;durP1;ratioP1;P1;durP2;ratioP2;P2;SDS_P1;SDS_P2;PMS_P1;PMS_P2;Temp;Humidity;BMP_temperature;BMP_pressure;BME280_temperature;BME280_humidity;BME280_pressure;Samples;Min_cycle;Max_cycle;Signal;HPM_P1;HPM_P2
2023/10/08 00:01:19;;;;;;;7.20;2.30;;;18.60;99.90;;;;;;5072528;28;20466;-51
2023/10/08 00:03:51;;;;;;;6.80;2.47;;;18.60;99.90;;;;;;5072365;28;20090;-55
2023/10/08 00:06:23;;;;;;;6.18;2.50;;;18.60;99.90;;;;;;5072673;28;20064;-49
2023/10/08 00:08:50;;;;;;;5.60;2.42;;;18.60;99.90;;;;;;5054314;28;20024;-54
2023/10/08 00:11:16;;;;;;;8.20;2.35;;;18.50;99.90;;;;;;5072555;28;20098;-50
2023/10/08 00:13:43;;;;;;;5.60;2.08;;;18.60;99.90;;;;;;5072240;28;20060;-54
2023/10/08 00:16:15;;;;;;;6.40;2.00;;;18.50;99.90;;;;;;5072344;28;20025;-53
2023/10/08 00:18:42;;;;;;;4.72;2.25;;;18.50;99.90;;;;;;5074062;28;20032;-53
2023/10/08 00:21:17;;;;;;;7.50;2.45;;;18.50;99.90;;;;;;5076169;28;20032;-54
2023/10/08 00:23:49;;;;;;;7.40;2.42;;;18.50;99.90;;;;;;5075609;28;20025;-53
2023/10/08 00:26:18;;;;;;;4.95;2.53;;;18.40;99.90;;;;;;5075871;28;20051;-49
2023/10/08 00:28:47;;;;;;;7.43;2.45;;;18.50;99.90;;;;;;5075531;28;20020;-53
2023/10/08 00:31:17;;;;;;;6.88;2.85;;;18.50;99.90;;;;;;5076227;28;20374;-53
2023/10/08 00:33:44;;;;;;;6.18;2.47;;;18.40;99.90;;;;;;5057693;28;20491;-55
2023/10/08 00:36:20;;;;;;;7.32;2.42;;;18.30;99.90;;;;;;5057694;28;20028;-54
2023/10/08 00:38:54;;;;;;;8.10;2.40;;;18.40;99.90;;;;;;5057276;28;20039;-53
2023/10/08 00:41:21;;;;;;;6.88;3.05;;;18.40;99.90;;;;;;5057847;28;20036;-54
2023/10/08 00:43:48;;;;;;;8.65;2.78;;;18.40;99.90;;;;;;5075872;28;20039;-54
2023/10/08 00:46:29;;;;;;;6.28;2.42;;;18.50;99.90;;;;;;5058090;28;20043;-53
2023/10/08 00:48:56;;;;;;;5.65;2.05;;;18.40;99.90;;;;;;5058245;28;20035;-54
2023/10/08 00:53:57;;;;;;;5.45;2.08;;;18.40;99.90;;;;;;5057425;28;20052;-54
2023/10/08 00:56:43;;;;;;;7.25;2.75;;;18.40;99.90;;;;;;5057844;28;20091;-51
2023/10/08 00:59:13;;;;;;;6.53;2.40;;;18.30;99.90;;;;;;5057700;28;20439;-51
2023/10/08 01:01:39;;;;;;;4.97;2.33;;;18.20;99.90;;;;;;5056756;28;20066;-53
2023/10/08 01:04:11;;;;;;;7.18;2.78;;;18.20;99.90;;;;;;5057453;28;20037;-54
2023/10/08 01:06:39;;;;;;;5.43;2.25;;;18.20;99.90;;;;;;5057670;28;20218;-53
2023/10/08 01:09:18;;;;;;;6.38;2.58;;;18.20;99.90;;;;;;5057292;28;20174;-55
2023/10/08 01:11:50;;;;;;;7.57;2.25;;;18.10;99.90;;;;;;5056940;28;20120;-53
2023/10/08 01:14:21;;;;;;;6.70;2.38;;;18.10;99.90;;;;;;5057300;28;20037;-54
2023/10/08 01:16:47;;;;;;;5.70;2.83;;;18.00;99.90;;;;;;5075568;28;20501;-54
2023/10/08 01:19:22;;;;;;;7.63;2.50;;;18.00;99.90;;;;;;5056716;28;20028;-55
2023/10/08 01:21:48;;;;;;;6.18;2.58;;;18.10;99.90;;;;;;5057367;28;20029;-54
2023/10/08 01:24:17;;;;;;;6.32;2.33;;;18.00;99.90;;;;;;5075249;28;20393;-55
2023/10/08 01:26:42;;;;;;;;;;;18.00;99.90;;;;;;5057820;28;20123;-53
2023/10/08 01:29:18;;;;;;;8.30;2.40;;;17.90;99.90;;;;;;5074682;28;20001;-54
2023/10/08 01:31:53;;;;;;;6.13;2.28;;;17.80;99.90;;;;;;5056275;28;20031;-54
2023/10/08 01:34:26;;;;;;;4.85;2.10;;;17.80;99.90;;;;;;5056989;28;20031;-54
2023/10/08 01:36:52;;;;;;;7.10;2.95;;;17.80;99.90;;;;;;5056922;28;20127;-54
2023/10/08 01:39:17;;;;;;;6.40;2.20;;;17.80;99.90;;;;;;5056753;28;20170;-55
2023/10/08 01:41:44;;;;;;;6.43;2.30;;;17.70;99.90;;;;;;5040382;28;20393;-51
2023/10/08 01:44:10;;;;;;;7.38;2.25;;;17.60;99.90;;;;;;5056937;28;20025;-55
2023/10/08 01:46:36;;;;;;;5.20;2.30;;;17.60;99.90;;;;;;5056655;28;20531;-54
2023/10/08 01:49:09;;;;;;;5.75;2.25;;;17.50;99.90;;;;;;5056502;28;20028;-53
2023/10/08 01:51:39;;;;;;;6.95;2.58;;;17.50;99.90;;;;;;5074085;28;20082;-51
2023/10/08 01:54:11;;;;;;;7.95;2.75;;;17.50;99.90;;;;;;5073954;28;20032;-54
2023/10/08 01:56:41;;;;;;;7.20;2.55;;;17.50;99.90;;;;;;5056515;28;20031;-55
2023/10/08 01:59:08;;;;;;;8.85;2.78;;;17.40;99.90;;;;;;5056370;28;20086;-53
2023/10/08 02:01:35;;;;;;;6.47;2.30;;;17.40;99.90;;;;;;5056151;28;20266;-53
2023/10/08 02:04:01;;;;;;;6.00;2.50;;;17.40;99.90;;;;;;5056202;28;20036;-53
2023/10/08 02:06:27;;;;;;;5.97;2.30;;;17.40;99.90;;;;;;5056044;28;20127;-55
2023/10/08 02:08:53;;;;;;;7.05;2.45;;;17.50;99.90;;;;;;5055959;28;20119;-52
2023/10/08 02:11:20;;;;;;;6.97;2.53;;;17.50;99.90;;;;;;5056405;28;20521;-51
2023/10/08 02:13:46;;;;;;;6.68;2.42;;;17.50;99.90;;;;;;5074031;28;20039;-54
2023/10/08 02:16:18;;;;;;;6.13;2.47;;;17.40;99.90;;;;;;5056104;28;20473;-54
2023/10/08 02:18:44;;;;;;;5.43;2.83;;;17.40;99.90;;;;;;5073593;28;20040;-53
2023/10/08 02:21:10;;;;;;;8.45;2.58;;;17.40;99.90;;;;;;5073641;28;20033;-54
2023/10/08 02:23:37;;;;;;;8.10;2.88;;;17.40;99.90;;;;;;5073854;28;20040;-52
2023/10/08 02:26:03;;;;;;;7.43;2.85;;;17.40;99.90;;;;;;5038927;28;20034;-55
2023/10/08 02:28:28;;;;;;;8.82;2.22;;;17.40;99.90;;;;;;5055280;28;20115;-52
2023/10/08 02:30:54;;;;;;;9.43;2.50;;;17.30;99.90;;;;;;5055564;28;20042;-55
2023/10/08 02:33:20;;;;;;;8.48;2.55;;;17.20;99.90;;;;;;5055512;28;20033;-54
2023/10/08 02:35:46;;;;;;;7.18;2.63;;;17.30;99.90;;;;;;5072879;28;20029;-51
2023/10/08 02:38:18;;;;;;;6.30;2.38;;;17.30;99.90;;;;;;5073407;28;20028;-51
2023/10/08 02:40:47;;;;;;;8.43;3.22;;;17.30;99.90;;;;;;5055450;28;20020;-55
2023/10/08 02:43:16;;;;;;;8.32;3.67;;;17.20;99.90;;;;;;5054628;28;20063;-49
2023/10/08 02:45:47;;;;;;;7.10;2.40;;;17.20;99.90;;;;;;5073506;28;20492;-54
2023/10/08 02:48:12;;;;;;;5.95;2.83;;;17.20;99.90;;;;;;5055594;28;20107;-53
2023/10/08 02:50:44;;;;;;;14.32;2.40;;;17.20;99.90;;;;;;5055284;28;20563;-54
2023/10/08 02:53:12;;;;;;;8.45;2.67;;;17.30;99.90;;;;;;5055508;28;20029;-50
2023/10/08 02:55:46;;;;;;;6.80;2.45;;;17.20;99.90;;;;;;5055942;28;20120;-54
2023/10/08 02:58:18;;;;;;;7.00;2.08;;;17.20;99.90;;;;;;5073598;28;20057;-53
2023/10/08 03:00:47;;;;;;;11.70;2.42;;;17.10;99.90;;;;;;5055302;28;20127;-52
2023/10/08 03:03:16;;;;;;;;;;;17.00;99.90;;;;;;5055933;28;20047;-53
2023/10/08 03:05:47;;;;;;;6.97;2.08;;;16.90;99.90;;;;;;5055075;28;19915;-51
2023/10/08 03:08:19;;;;;;;7.22;2.28;;;17.00;99.90;;;;;;5055155;28;20434;-51
2023/10/08 03:10:45;;;;;;;7.15;2.50;;;17.00;99.90;;;;;;5073341;28;20021;-53
2023/10/08 03:13:12;;;;;;;7.60;2.72;;;17.00;99.90;;;;;;5054627;28;20039;-53
2023/10/08 03:15:46;;;;;;;4.85;1.98;;;17.00;99.90;;;;;;5055155;28;20067;-52
2023/10/08 03:18:14;;;;;;;7.88;2.75;;;16.90;99.90;;;;;;5055752;28;20024;-51
2023/10/08 03:20:44;;;;;;;7.53;2.38;;;16.90;99.90;;;;;;5054910;28;20029;-52
2023/10/08 03:25:57;;;;;;;5.07;2.25;;;16.80;99.90;;;;;;5054442;28;20029;-49
2023/10/08 03:28:24;;;;;;;7.53;2.38;;;16.70;99.90;;;;;;5054946;28;20037;-50
2023/10/08 03:30:56;;;;;;;4.78;1.95;;;16.70;99.90;;;;;;5055295;28;20029;-53
2023/10/08 03:33:23;;;;;;;7.50;2.55;;;16.70;99.90;;;;;;5054197;28;20039;-54
2023/10/08 03:35:52;;;;;;;6.85;2.17;;;16.70;99.90;;;;;;5072726;28;20086;-54
2023/10/08 03:38:28;;;;;;;10.10;2.40;;;16.60;99.90;;;;;;5054714;28;20469;-52
2023/10/08 03:41:01;;;;;;;5.68;2.20;;;16.80;99.90;;;;;;5073305;28;20039;-54
2023/10/08 03:46:39;;;;;;;6.50;2.22;;;16.90;99.90;;;;;;5010871;28;20038;-52
2023/10/08 03:49:15;;;;;;;10.27;3.05;;;16.80;99.90;;;;;;5063759;28;20040;-55
2023/10/08 03:51:42;;;;;;;8.80;2.40;;;16.80;99.90;;;;;;5072585;28;20028;-55
2023/10/08 03:54:18;;;;;;;6.55;2.33;;;16.80;99.90;;;;;;5075527;28;20032;-54
2023/10/08 03:56:45;;;;;;;9.48;2.65;;;16.70;99.90;;;;;;5076974;28;20398;-53
2023/10/08 03:59:29;;;;;;;6.38;2.38;;;16.70;99.90;;;;;;5076540;28;20048;-52
2023/10/08 04:02:08;;;;;;;7.35;2.53;;;16.60;99.90;;;;;;5076815;28;20488;-53
2023/10/08 04:04:49;;;;;;;7.15;2.53;;;16.50;99.90;;;;;;5058973;28;20426;-53
2023/10/08 04:07:39;;;;;;;7.65;2.33;;;16.40;99.90;;;;;;5076864;28;20035;-52
2023/10/08 04:12:52;;;;;;;5.60;2.33;;;16.40;99.90;;;;;;5045213;28;20036;-54
2023/10/08 04:15:19;;;;;;;6.97;2.50;;;16.50;99.90;;;;;;5076759;28;20028;-53
2023/10/08 04:17:50;;;;;;;8.43;2.65;;;16.50;99.90;;;;;;5076781;28;20051;-50
2023/10/08 04:23:02;;;;;;;6.82;2.50;;;16.50;99.90;;;;;;5075830;28;20562;-50
2023/10/08 04:25:28;;;;;;;6.70;2.67;;;16.50;99.90;;;;;;5076398;28;20485;-52
2023/10/08 04:27:58;;;;;;;7.15;2.75;;;16.50;99.90;;;;;;5075910;28;20557;-55
2023/10/08 04:30:32;;;;;;;6.03;2.35;;;16.40;99.90;;;;;;5076443;28;20029;-54
2023/10/08 04:33:12;;;;;;;8.32;2.83;;;16.50;99.90;;;;;;5057923;28;20032;-53
2023/10/08 04:35:48;;;;;;;4.82;2.22;;;16.60;99.90;;;;;;5076130;28;20032;-54
2023/10/08 04:38:21;;;;;;;5.15;1.90;;;16.50;99.90;;;;;;5075856;28;20036;-52
2023/10/08 04:40:51;;;;;;;8.60;2.25;;;16.50;99.90;;;;;;5075555;28;20071;-55
2023/10/08 04:43:30;;;;;;;7.00;2.55;;;16.40;99.90;;;;;;5076621;28;20500;-52
2023/10/08 04:46:04;;;;;;;7.22;2.45;;;16.40;99.90;;;;;;5076131;28;20037;-53
2023/10/08 04:48:32;;;;;;;8.25;2.90;;;16.40;99.90;;;;;;5075227;28;20037;-52
2023/10/08 04:50:59;;;;;;;8.07;2.53;;;16.30;99.90;;;;;;5076390;28;20397;-51
2023/10/08 04:53:44;;;;;;;5.05;2.38;;;16.30;99.90;;;;;;5075190;28;20058;-53
2023/10/08 04:56:18;;;;;;;6.45;2.47;;;16.30;99.90;;;;;;5076174;28;20044;-49
2023/10/08 04:58:47;;;;;;;7.55;2.50;;;16.20;99.90;;;;;;5076009;28;20075;-50
2023/10/08 05:01:18;;;;;;;7.07;2.70;;;16.20;99.90;;;;;;5057806;28;20473;-53
2023/10/08 05:17:10;;;;;;;8.27;2.45;;;16.10;99.90;;;;;;5075631;28;20029;-49
2023/10/08 05:25:11;;;;;;;6.25;2.50;;;16.00;99.90;;;;;;5075324;28;20367;-51
2023/10/08 05:30:25;;;;;;;8.82;2.83;;;16.00;99.90;;;;;;5075720;28;20491;-51
2023/10/08 05:33:13;;;;;;;6.68;2.78;;;16.20;99.90;;;;;;5057230;28;20101;-51
2023/10/08 05:38:16;;;;;;;8.18;2.97;;;16.10;99.90;;;;;;5075023;28;20029;-52
2023/10/08 05:43:55;;;;;;;6.03;2.63;;;16.10;99.90;;;;;;5074801;28;20036;-51
2023/10/08 05:46:39;;;;;;;5.43;2.67;;;16.10;99.90;;;;;;5074817;28;20109;-49
2023/10/08 06:13:55;;;;;;;7.03;2.22;;;15.90;99.90;;;;;;5074307;28;20485;-50
2023/10/08 06:18:28;;;;;;;9.38;2.45;;;15.80;99.90;;;;;;5074243;28;20028;-50
2023/10/08 06:20:58;;;;;;;11.05;2.75;;;15.80;99.90;;;;;;5074274;28;20033;-53
2023/10/08 06:23:25;;;;;;;7.35;2.55;;;15.70;99.90;;;;;;5074001;28;20029;-52
2023/10/08 06:26:05;;;;;;;7.13;2.55;;;15.70;99.90;;;;;;5074084;28;20043;-53
2023/10/08 06:28:34;;;;;;;9.25;2.33;;;15.70;99.90;;;;;;5073711;28;20034;-50
2023/10/08 06:31:03;;;;;;;6.22;2.50;;;15.70;99.90;;;;;;5074064;28;20024;-50
2023/10/08 06:33:33;;;;;;;8.35;2.50;;;15.80;99.90;;;;;;5074234;28;20036;-54
2023/10/08 06:36:02;;;;;;;4.30;2.08;;;15.90;99.90;;;;;;5074677;28;20033;-52
2023/10/08 06:38:38;;;;;;;7.60;2.60;;;15.90;99.90;;;;;;5073194;28;20025;-51
2023/10/08 06:41:09;;;;;;;6.75;2.70;;;15.80;99.90;;;;;;5074235;28;20034;-53
2023/10/08 06:43:38;;;;;;;8.60;2.65;;;15.80;99.90;;;;;;5074094;28;20024;-51
2023/10/08 06:46:07;;;;;;;6.32;2.35;;;15.80;99.90;;;;;;5074258;28;20020;-52
2023/10/08 06:48:34;;;;;;;7.35;2.78;;;15.80;99.90;;;;;;5073888;28;20229;-51
2023/10/08 06:51:13;;;;;;;7.18;2.80;;;15.80;99.90;;;;;;5074220;28;20032;-54
2023/10/08 06:53:44;;;;;;;9.20;2.90;;;15.80;99.90;;;;;;5074284;28;20035;-55
2023/10/08 06:56:12;;;;;;;5.95;2.40;;;15.80;99.90;;;;;;5073871;28;20094;-51
2023/10/08 06:58:48;;;;;;;7.72;3.00;;;15.70;99.90;;;;;;5055654;28;20477;-53
2023/10/08 07:01:24;;;;;;;8.43;3.33;;;15.70;99.90;;;;;;5074126;28;20045;-49
2023/10/08 07:04:03;;;;;;;6.85;2.75;;;15.70;99.90;;;;;;5074162;28;20115;-51
2023/10/08 07:06:33;;;;;;;7.50;2.65;;;15.70;99.90;;;;;;5074293;28;20066;-51
2023/10/08 07:09:04;;;;;;;7.07;2.95;;;15.70;99.90;;;;;;5073962;28;20483;-49
2023/10/08 07:11:34;;;;;;;6.93;2.70;;;15.70;99.90;;;;;;5073945;28;20070;-52
2023/10/08 07:14:04;;;;;;;7.75;2.47;;;15.60;99.90;;;;;;5073575;28;20068;-50
2023/10/08 07:16:30;;;;;;;8.45;3.33;;;15.70;99.90;;;;;;5074076;28;20470;-49
2023/10/08 07:19:02;;;;;;;10.25;2.95;;;15.70;99.90;;;;;;5073340;28;20554;-54
2023/10/08 07:21:29;;;;;;;10.25;3.13;;;15.60;99.90;;;;;;5073757;28;20119;-51
2023/10/08 07:23:59;;;;;;;9.52;3.22;;;15.70;99.90;;;;;;5055744;28;20456;-52
2023/10/08 07:26:37;;;;;;;10.30;2.92;;;15.60;99.90;;;;;;5073819;28;20051;-54
2023/10/08 07:29:11;;;;;;;7.10;3.22;;;15.60;99.90;;;;;;5073360;28;20397;-51
2023/10/08 07:31:41;;;;;;;9.35;2.80;;;15.70;99.90;;;;;;5073560;28;20389;-49
2023/10/08 07:34:25;;;;;;;7.13;3.08;;;15.70;99.90;;;;;;5055759;28;20123;-52
2023/10/08 07:36:54;;;;;;;11.50;3.33;;;15.70;99.90;;;;;;5073897;28;20033;-53
2023/10/08 07:41:50;;;;;;;10.65;3.22;;;15.90;99.90;;;;;;5073290;28;20480;-53
2023/10/08 07:44:21;;;;;;;9.65;3.15;;;16.00;99.90;;;;;;5073003;28;20033;-51
2023/10/08 07:46:51;;;;;;;7.85;3.40;;;16.00;99.90;;;;;;5072592;28;20033;-52
2023/10/08 07:49:17;;;;;;;11.77;3.00;;;16.00;99.90;;;;;;5073081;28;20056;-52
2023/10/08 07:51:50;;;;;;;10.63;3.60;;;16.00;99.90;;;;;;5073667;28;20029;-55
2023/10/08 07:54:28;;;;;;;6.03;2.35;;;16.10;99.90;;;;;;5073199;28;20043;-51
2023/10/08 07:57:08;;;;;;;9.10;3.53;;;16.10;99.90;;;;;;5073303;28;20020;-53
2023/10/08 07:59:38;;;;;;;9.27;3.75;;;16.20;99.90;;;;;;5073152;28;20446;-50
2023/10/08 08:02:11;;;;;;;7.97;3.05;;;16.20;99.90;;;;;;5056907;28;20032;-54
2023/10/08 08:04:39;;;;;;;14.80;4.40;;;16.20;99.90;;;;;;5073338;28;20102;-51
2023/10/08 08:07:06;;;;;;;12.02;4.68;;;16.30;99.90;;;;;;5073443;28;20032;-51
2023/10/08 08:09:37;;;;;;;13.73;5.28;;;16.40;99.90;;;;;;5055196;28;20517;-53
2023/10/08 08:12:07;;;;;;;14.55;5.13;;;16.50;99.90;;;;;;5073662;28;20037;-54
2023/10/08 08:14:33;;;;;;;17.85;5.63;;;16.60;99.90;;;;;;5072806;28;20039;-52
2023/10/08 08:17:13;;;;;;;19.52;7.07;;;16.60;99.90;;;;;;5055007;28;20032;-55
2023/10/08 08:19:39;;;;;;;19.90;6.40;;;16.60;99.90;;;;;;5072568;28;20397;-51
2023/10/08 08:22:05;;;;;;;18.25;6.35;;;16.50;99.90;;;;;;5073204;28;20032;-54
2023/10/08 08:24:35;;;;;;;18.05;6.40;;;16.50;99.90;;;;;;5073359;28;20039;-51
2023/10/08 08:27:07;;;;;;;19.60;7.03;;;16.50;99.90;;;;;;5073109;28;20043;-54
2023/10/08 08:29:44;;;;;;;17.30;6.65;;;16.40;99.90;;;;;;5073373;28;20054;-55
2023/10/08 08:32:15;;;;;;;17.67;6.35;;;16.40;99.90;;;;;;5072807;28;20028;-54
2023/10/08 08:34:44;;;;;;;15.15;5.60;;;16.40;99.90;;;;;;5072568;28;20035;-54
2023/10/08 08:37:11;;;;;;;18.63;5.28;;;16.40;99.90;;;;;;5055090;28;20090;-52
2023/10/08 08:39:38;;;;;;;15.50;5.93;;;16.40;99.90;;;;;;5074492;28;20040;-52
2023/10/08 08:42:04;;;;;;;14.27;5.40;;;16.40;99.90;;;;;;5075659;28;20492;-53
2023/10/08 08:44:43;;;;;;;16.50;5.30;;;16.40;99.90;;;;;;5075944;28;20040;-54
2023/10/08 08:47:14;;;;;;;;;;;16.50;99.90;;;;;;5077205;28;20086;-52
2023/10/08 08:49:42;;;;;;;16.38;5.43;;;16.60;99.90;;;;;;5075544;28;19982;-50
2023/10/08 08:52:08;;;;;;;12.93;5.43;;;16.60;99.90;;;;;;5076525;28;20028;-51
2023/10/08 08:54:36;;;;;;;14.60;5.03;;;16.70;99.90;;;;;;5076034;28;20021;-52
2023/10/08 08:57:04;;;;;;;17.13;6.78;;;16.80;99.90;;;;;;5075665;28;20085;-51
2023/10/08 08:59:30;;;;;;;14.40;5.33;;;16.80;99.90;;;;;;5075491;28;20028;-51
2023/10/08 09:02:00;;;;;;;15.82;6.13;;;16.90;99.90;;;;;;5058020;28;20530;-50
2023/10/08 09:04:32;;;;;;;12.68;5.35;;;16.80;99.90;;;;;;5076059;28;20032;-54
2023/10/08 09:07:04;;;;;;;15.75;5.72;;;16.80;99.90;;;;;;5076225;28;20397;-55
2023/10/08 09:09:35;;;;;;;14.57;5.75;;;16.80;99.90;;;;;;5075800;28;20030;-51
2023/10/08 09:12:01;;;;;;;17.13;7.05;;;16.80;99.90;;;;;;5057455;28;20029;-52
2023/10/08 09:14:29;;;;;;;17.63;6.78;;;16.70;99.90;;;;;;5076020;28;20020;-52
2023/10/08 09:16:59;;;;;;;12.57;6.55;;;16.80;99.90;;;;;;5075923;28;20082;-50
2023/10/08 09:19:26;;;;;;;12.43;6.63;;;16.80;99.90;;;;;;5076016;28;20028;-50
2023/10/08 09:22:09;;;;;;;13.85;5.57;;;16.80;99.90;;;;;;5076249;28;20036;-50
2023/10/08 09:24:37;;;;;;;9.05;4.88;;;16.60;99.90;;;;;;5075802;28;20044;-53
2023/10/08 09:27:07;;;;;;;10.63;4.88;;;16.50;99.90;;;;;;5075841;28;20032;-51
2023/10/08 09:29:39;;;;;;;10.45;4.05;;;16.40;99.90;;;;;;5075829;28;20040;-52
2023/10/08 09:32:08;;;;;;;9.50;4.30;;;16.30;99.90;;;;;;5076068;28;20029;-52
2023/10/08 09:34:33;;;;;;;6.43;3.35;;;16.20;99.90;;;;;;5075723;28;20480;-52
2023/10/08 09:37:01;;;;;;;8.10;3.88;;;16.10;99.90;;;;;;5075731;28;20040;-51
2023/10/08 09:39:34;;;;;;;5.95;3.13;;;16.10;99.90;;;;;;5075445;28;20085;-51
2023/10/08 09:42:11;;;;;;;13.52;4.00;;;16.00;99.90;;;;;;5057381;28;20036;-54
2023/10/08 09:44:37;;;;;;;12.48;3.97;;;16.00;99.90;;;;;;5075603;28;20020;-52
2023/10/08 09:47:05;;;;;;;9.25;3.20;;;16.00;99.90;;;;;;5075518;28;20029;-50
2023/10/08 09:49:33;;;;;;;11.25;3.30;;;16.00;99.90;;;;;;5057305;28;20060;-51
2023/10/08 09:52:06;;;;;;;9.05;4.10;;;16.10;99.90;;;;;;5056881;28;20028;-50
2023/10/08 09:54:42;;;;;;;8.13;3.40;;;16.10;99.90;;;;;;5075450;28;20508;-54
2023/10/08 09:57:10;;;;;;;7.45;3.03;;;16.10;99.90;;;;;;5075509;28;20047;-55
2023/10/08 09:59:38;;;;;;;7.85;3.70;;;16.10;99.90;;;;;;5074902;28;20029;-50
2023/10/08 10:02:04;;;;;;;11.32;4.10;;;16.10;99.90;;;;;;5057184;28;20392;-50
2023/10/08 10:04:34;;;;;;;12.63;4.32;;;16.10;99.90;;;;;;5075407;28;20393;-50
2023/10/08 10:07:14;;;;;;;9.43;3.80;;;16.00;99.90;;;;;;5074612;28;20040;-51
2023/10/08 10:09:45;;;;;;;9.50;4.10;;;16.00;99.90;;;;;;5074455;28;20033;-53
2023/10/08 10:12:11;;;;;;;10.45;3.65;;;16.00;99.90;;;;;;5056589;28;20032;-51
2023/10/08 10:14:46;;;;;;;13.80;4.07;;;16.00;99.90;;;;;;5074784;28;20314;-52
2023/10/08 10:17:18;;;;;;;11.38;5.03;;;16.00;99.90;;;;;;5074962;28;20119;-53
2023/10/08 10:19:45;;;;;;;19.75;6.57;;;16.10;99.90;;;;;;5074102;28;20119;-53
2023/10/08 10:22:15;;;;;;;18.02;7.63;;;16.20;99.90;;;;;;5074617;28;20036;-52
2023/10/08 10:24:41;;;;;;;18.63;9.25;;;16.20;99.90;;;;;;5074541;28;20032;-51
2023/10/08 10:27:11;;;;;;;23.67;9.98;;;16.20;99.90;;;;;;5074439;28;20024;-50
2023/10/08 10:29:37;;;;;;;20.83;9.65;;;16.30;99.90;;;;;;5074326;28;20477;-51
2023/10/08 10:32:05;;;;;;;21.77;9.65;;;16.20;99.90;;;;;;5074218;28;20036;-52
2023/10/08 10:34:34;;;;;;;26.10;10.77;;;16.20;99.90;;;;;;5074156;28;20036;-52
2023/10/08 10:37:08;;;;;;;22.98;10.27;;;16.20;99.90;;;;;;5073723;28;20032;-53
2023/10/08 10:39:39;;;;;;;20.48;9.65;;;16.20;99.90;;;;;;5073652;28;20047;-55
2023/10/08 10:42:06;;;;;;;21.42;9.63;;;16.10;99.90;;;;;;5073540;28;20032;-54
2023/10/08 10:44:36;;;;;;;17.75;9.43;;;16.10;99.90;;;;;;5055254;28;20497;-55
2023/10/08 10:52:32;;;;;;;13.63;7.07;;;16.00;99.90;;;;;;5073224;28;20025;-55
2023/10/08 10:57:43;;;;;;;17.92;6.30;;;16.00;99.90;;;;;;5073545;28;20037;-52
2023/10/08 11:02:59;;;;;;;16.55;5.97;;;16.00;99.90;;;;;;5071880;28;20032;-55
2023/10/08 11:05:28;;;;;;;11.60;5.95;;;15.90;99.90;;;;;;5072742;28;20032;-56
2023/10/08 11:08:04;;;;;;;14.20;5.68;;;15.90;99.90;;;;;;5072668;28;20039;-53
2023/10/08 11:10:38;;;;;;;11.45;5.70;;;15.90;99.90;;;;;;5055867;28;20032;-54
2023/10/08 11:13:14;;;;;;;12.63;6.03;;;16.00;99.90;;;;;;5073376;28;20111;-53
2023/10/08 11:15:40;;;;;;;12.15;6.03;;;15.90;99.90;;;;;;5073376;28;20473;-54
2023/10/08 11:18:16;;;;;;;14.70;5.93;;;15.80;99.90;;;;;;5073982;28;20028;-50
2023/10/08 11:20:45;;;;;;;12.60;5.80;;;15.80;99.90;;;;;;5073176;28;20473;-53
2023/10/08 11:23:32;;;;;;;15.25;5.88;;;15.70;99.90;;;;;;5073430;28;20093;-54
2023/10/08 11:26:02;;;;;;;12.45;4.85;;;15.70;99.90;;;;;;5074364;28;20094;-54
2023/10/08 11:28:41;;;;;;;10.02;4.82;;;15.80;99.90;;;;;;5073468;28;20032;-51
2023/10/08 11:31:11;;;;;;;9.38;4.32;;;15.80;99.90;;;;;;5073238;28;20100;-53
2023/10/08 11:33:42;;;;;;;8.80;4.13;;;15.90;99.90;;;;;;5055415;28;20119;-51
2023/10/08 11:36:27;;;;;;;6.78;3.25;;;16.00;99.90;;;;;;5055717;28;20056;-51
2023/10/08 11:39:00;;;;;;;7.68;3.67;;;16.00;99.90;;;;;;5072805;28;20036;-55
2023/10/08 11:41:27;;;;;;;8.73;3.42;;;16.20;99.90;;;;;;5073183;28;20060;-54
2023/10/08 11:43:57;;;;;;;9.18;3.08;;;16.30;99.90;;;;;;5072504;28;20037;-55
2023/10/08 11:46:38;;;;;;;7.28;2.83;;;16.20;99.90;;;;;;5073210;28;20495;-54
2023/10/08 11:49:17;;;;;;;9.00;2.63;;;16.30;99.90;;;;;;5073255;28;20446;-55
2023/10/08 11:51:44;;;;;;;6.28;2.75;;;16.20;99.90;;;;;;5073129;28;20040;-53
2023/10/08 11:54:12;;;;;;;7.13;3.38;;;16.30;99.90;;;;;;5072993;28;20473;-50
2023/10/08 11:56:39;;;;;;;8.45;2.50;;;16.20;99.90;;;;;;5054772;28;20144;-51
2023/10/08 11:59:08;;;;;;;8.93;2.70;;;16.20;99.90;;;;;;5072455;28;20036;-52
2023/10/08 12:01:41;;;;;;;6.00;2.35;;;16.20;99.90;;;;;;5072924;28;20028;-51
2023/10/08 12:04:12;;;;;;;5.93;2.22;;;16.20;99.90;;;;;;5073201;28;20396;-51
2023/10/08 12:06:43;;;;;;;5.10;2.10;;;16.30;99.90;;;;;;5072804;28;20443;-51
2023/10/08 12:09:12;;;;;;;5.95;2.35;;;16.30;99.90;;;;;;5072776;28;20037;-52
2023/10/08 12:11:39;;;;;;;7.80;2.42;;;16.30;99.90;;;;;;5072732;28;20262;-56
2023/10/08 12:14:05;;;;;;;7.13;2.58;;;16.40;99.90;;;;;;5073009;28;20124;-54
2023/10/08 12:16:35;;;;;;;6.07;2.03;;;16.50;99.90;;;;;;5076091;28;20245;-53
2023/10/08 12:19:01;;;;;;;8.25;3.75;;;16.60;99.90;;;;;;5076288;28;20032;-54
2023/10/08 12:21:31;;;;;;;7.60;2.30;;;16.50;99.90;;;;;;5075997;28;20028;-52
2023/10/08 12:23:57;;;;;;;7.53;2.65;;;16.50;99.90;;;;;;5075708;28;20119;-54
2023/10/08 12:26:23;;;;;;;6.35;2.25;;;16.40;99.90;;;;;;5076166;28;20040;-52
2023/10/08 12:28:49;;;;;;;8.80;2.40;;;16.50;99.90;;;;;;5076234;28;20052;-55
2023/10/08 12:31:17;;;;;;;8.00;2.60;;;16.50;99.90;;;;;;5058535;28;20386;-51
2023/10/08 12:33:43;;;;;;;9.40;2.30;;;16.60;99.90;;;;;;5075846;28;20530;-55
2023/10/08 12:36:10;;;;;;;8.98;2.28;;;16.60;99.90;;;;;;5075890;28;20037;-54
2023/10/08 12:38:37;;;;;;;7.72;2.00;;;16.60;99.90;;;;;;5076311;28;20036;-51
2023/10/08 12:41:11;;;;;;;6.32;2.13;;;16.60;99.90;;;;;;5076197;28;20024;-52
2023/10/08 12:43:38;;;;;;;5.90;2.25;;;16.60;99.90;;;;;;5076152;28;20499;-54
2023/10/08 12:46:07;;;;;;;7.97;2.63;;;16.60;99.90;;;;;;5075710;28;20033;-55
2023/10/08 12:48:33;;;;;;;7.10;2.35;;;16.60;99.90;;;;;;5075613;28;20028;-55
2023/10/08 12:50:59;;;;;;;8.80;3.05;;;16.60;99.90;;;;;;5075977;28;20534;-54
2023/10/08 12:53:36;;;;;;;8.00;3.00;;;16.60;99.90;;;;;;5076158;28;20041;-54
2023/10/08 12:56:17;;;;;;;9.18;2.90;;;16.60;99.90;;;;;;5076136;28;20040;-55
2023/10/08 12:58:48;;;;;;;12.80;3.33;;;16.50;99.90;;;;;;5058170;28;20040;-53
2023/10/08 13:01:17;;;;;;;10.23;3.38;;;16.50;99.90;;;;;;5076197;28;20127;-53
2023/10/08 13:03:53;;;;;;;10.18;3.00;;;16.50;99.90;;;;;;5075757;28;20024;-53
2023/10/08 13:06:23;;;;;;;8.18;2.90;;;16.50;99.90;;;;;;5075662;28;20506;-52
2023/10/08 13:08:52;;;;;;;9.13;3.17;;;16.50;99.90;;;;;;5075414;28;20036;-53
2023/10/08 13:11:22;;;;;;;10.02;3.35;;;16.60;99.90;;;;;;5075229;28;20071;-49
2023/10/08 13:13:58;;;;;;;7.40;3.00;;;16.60;99.90;;;;;;5075598;28;20043;-52
2023/10/08 13:16:25;;;;;;;9.73;3.70;;;16.60;99.90;;;;;;5057574;28;20032;-50
2023/10/08 13:18:52;;;;;;;8.82;3.38;;;16.60;99.90;;;;;;5075271;28;20059;-50
2023/10/08 13:21:24;;;;;;;12.40;3.33;;;16.50;99.90;;;;;;5057249;28;20036;-52
2023/10/08 13:23:50;;;;;;;10.50;3.95;;;16.50;99.90;;;;;;5074800;28;20036;-50
2023/10/08 13:26:17;;;;;;;10.80;3.40;;;16.50;99.90;;;;;;5074355;28;20114;-51
2023/10/08 13:28:44;;;;;;;10.23;3.33;;;16.60;99.90;;;;;;5074724;28;20480;-53
2023/10/08 13:31:10;;;;;;;10.25;3.20;;;16.60;99.90;;;;;;5074914;28;20384;-53
2023/10/08 13:33:42;;;;;;;9.65;3.20;;;16.70;99.90;;;;;;5075146;28;20063;-53
2023/10/08 13:36:09;;;;;;;9.80;3.80;;;16.70;99.90;;;;;;5074732;28;20036;-53
2023/10/08 13:38:36;;;;;;;9.60;4.00;;;16.80;99.90;;;;;;5074842;28;20060;-54
2023/10/08 13:41:14;;;;;;;10.52;3.35;;;16.90;99.90;;;;;;5074839;28;20039;-50
2023/10/08 13:43:47;;;;;;;10.60;3.40;;;16.90;99.90;;;;;;5074862;28;20142;-51
2023/10/08 13:46:17;;;;;;;7.85;3.58;;;16.90;99.90;;;;;;5074945;28;20186;-50
2023/10/08 13:48:47;;;;;;;8.02;3.63;;;17.00;99.90;;;;;;5074614;28;20033;-53
2023/10/08 13:51:14;;;;;;;6.40;3.03;;;17.00;99.90;;;;;;5074611;28;20388;-53
2023/10/08 13:53:44;;;;;;;8.90;3.20;;;17.00;99.90;;;;;;5056825;28;20469;-52
2023/10/08 13:56:11;;;;;;;8.57;3.10;;;17.00;99.90;;;;;;5074336;28;20474;-51
2023/10/08 13:58:46;;;;;;;7.10;2.78;;;16.90;99.90;;;;;;5074499;28;20100;-51
2023/10/08 14:01:21;;;;;;;8.13;3.25;;;16.90;99.90;;;;;;5074245;28;20033;-53
2023/10/08 14:03:48;;;;;;;8.60;3.28;;;16.90;99.90;;;;;;5074146;28;20385;-50
2023/10/08 14:06:16;;;;;;;8.40;3.35;;;16.80;99.90;;;;;;5056491;28;20052;-54
2023/10/08 14:08:44;;;;;;;6.68;2.65;;;16.80;99.90;;;;;;5073807;28;20036;-53
2023/10/08 14:11:12;;;;;;;8.50;3.17;;;16.80;99.90;;;;;;5073877;28;20029;-55
2023/10/08 14:13:41;;;;;;;7.93;3.35;;;16.80;99.90;;;;;;5055819;28;20025;-54
2023/10/08 14:16:10;;;;;;;;;;;16.80;99.90;;;;;;5074394;28;20025;-55
2023/10/08 14:18:43;;;;;;;;;;;16.70;99.90;;;;;;5074195;28;19909;-51
2023/10/08 14:21:10;;;;;;;7.85;3.10;;;16.60;99.90;;;;;;5073980;28;19908;-55
2023/10/08 14:23:39;;;;;;;8.07;2.83;;;16.60;99.90;;;;;;5073402;28;20033;-55